createdAt,value
2022-08-26T00:00:54.276Z,21.26
2022-08-26T00:01:55.929Z,21.24
2022-08-26T00:02:57.553Z,21.22
2022-08-26T00:03:59.345Z,21.2
2022-08-26T00:05:01.015Z,21.19
2022-08-26T00:06:03.842Z,21.16
2022-08-26T00:07:04.703Z,21.15
2022-08-26T00:08:06.222Z,21.14
2022-08-26T00:09:08.027Z,21.12
2022-08-26T00:10:09.711Z,21.11
2022-08-26T00:11:11.414Z,21.1
2022-08-26T00:12:13.147Z,21.08
2022-08-26T00:13:14.893Z,21.08
2022-08-26T00:14:16.640Z,21.06
2022-08-26T00:15:18.359Z,21.04
2022-08-26T00:16:20.136Z,21.03
2022-08-26T00:17:21.869Z,21.02
2022-08-26T00:18:23.583Z,21.01
2022-08-26T00:19:25.307Z,21
2022-08-26T00:20:27.021Z,20.99
2022-08-26T00:21:28.774Z,20.97
2022-08-26T00:22:30.495Z,20.97
2022-08-26T00:23:32.219Z,20.96
2022-08-26T00:24:33.987Z,20.96
2022-08-26T00:25:35.681Z,20.95
2022-08-26T00:26:37.431Z,20.94
2022-08-26T00:27:39.178Z,20.93
2022-08-26T00:28:40.894Z,20.92
2022-08-26T00:29:42.636Z,20.91
2022-08-26T00:30:45.559Z,20.9
2022-08-26T00:31:46.221Z,20.87
2022-08-26T00:32:47.828Z,20.87
2022-08-26T00:33:49.558Z,20.85
2022-08-26T00:34:51.311Z,20.84
2022-08-26T00:35:53.029Z,20.83
2022-08-26T00:36:54.767Z,20.8
2022-08-26T00:37:56.502Z,20.78
2022-08-26T00:38:58.475Z,20.77
2022-08-26T00:40:00.678Z,20.76
2022-08-26T00:41:01.697Z,20.74
2022-08-26T00:42:04.889Z,20.72
2022-08-26T00:43:09.448Z,20.72
2022-08-26T00:44:06.899Z,20.7
2022-08-26T00:45:10.186Z,20.67
2022-08-26T00:46:10.398Z,20.67
2022-08-26T00:47:12.118Z,20.65
2022-08-26T00:48:13.838Z,20.64
2022-08-26T00:49:15.581Z,20.62
2022-08-26T00:50:17.312Z,20.61
2022-08-26T00:51:19.033Z,20.58
2022-08-26T00:52:20.773Z,20.57
2022-08-26T00:53:25.981Z,20.55
2022-08-26T00:54:24.248Z,20.53
2022-08-26T00:55:27.487Z,20.5
2022-08-26T00:56:27.711Z,20.48
2022-08-26T00:57:29.437Z,20.46
2022-08-26T00:58:31.171Z,20.44
2022-08-26T00:59:33.223Z,20.42
2022-08-26T01:00:34.636Z,20.4
2022-08-26T01:01:36.428Z,20.38
2022-08-26T01:02:38.167Z,20.37
2022-08-26T01:03:39.847Z,20.35
2022-08-26T01:04:41.594Z,20.35
2022-08-26T01:05:43.313Z,20.33
2022-08-26T01:06:45.057Z,20.32
2022-08-26T01:07:46.772Z,20.32
2022-08-26T01:08:48.508Z,20.3
2022-08-26T01:09:50.258Z,20.28
2022-08-26T01:10:51.977Z,20.28
2022-08-26T01:11:53.714Z,20.28
2022-08-26T01:12:55.446Z,20.27
2022-08-26T01:13:57.200Z,20.27
2022-08-26T01:14:58.922Z,20.26
2022-08-26T01:16:00.670Z,20.25
2022-08-26T01:17:02.378Z,20.24
2022-08-26T01:18:04.110Z,20.24
2022-08-26T01:19:05.838Z,20.23
2022-08-26T01:20:07.602Z,20.22
2022-08-26T01:21:09.333Z,20.21
2022-08-26T01:22:11.037Z,20.21
2022-08-26T01:23:12.999Z,20.2
2022-08-26T01:24:14.513Z,20.19
2022-08-26T01:25:16.270Z,20.18
2022-08-26T01:26:19.711Z,20.17
2022-08-26T01:27:19.734Z,20.16
2022-08-26T01:28:21.483Z,20.16
2022-08-26T01:29:23.197Z,20.15
2022-08-26T01:30:25.002Z,20.14
2022-08-26T01:31:26.718Z,20.13
2022-08-26T01:32:28.398Z,20.13
2022-08-26T01:33:30.157Z,20.13
2022-08-26T01:34:31.883Z,20.13
2022-08-26T01:35:33.668Z,20.13
2022-08-26T01:36:35.313Z,20.12
2022-08-26T01:37:37.050Z,20.12
2022-08-26T01:38:38.776Z,20.12
2022-08-26T01:39:40.534Z,20.11
2022-08-26T01:40:42.237Z,20.12
2022-08-26T01:41:44.212Z,20.12
2022-08-26T01:42:45.716Z,20.12
2022-08-26T01:43:47.451Z,20.11
2022-08-26T01:44:49.315Z,20.11
2022-08-26T01:45:50.976Z,20.11
2022-08-26T01:46:52.649Z,20.1
2022-08-26T01:47:56.838Z,20.1
2022-08-26T01:48:56.127Z,20.08
2022-08-26T01:49:57.866Z,20.07
2022-08-26T01:50:59.676Z,20.05
2022-08-26T01:52:01.319Z,20.02
2022-08-26T01:53:03.045Z,20.01
2022-08-26T01:54:04.780Z,19.98
2022-08-26T01:55:06.547Z,19.95
2022-08-26T01:56:08.253Z,19.93
2022-08-26T01:57:09.989Z,19.9
2022-08-26T01:58:11.717Z,19.87
2022-08-26T01:59:13.740Z,19.84
2022-08-26T02:00:16.161Z,19.82
2022-08-26T02:01:17.006Z,19.81
2022-08-26T02:02:18.679Z,19.79
2022-08-26T02:03:20.409Z,19.79
2022-08-26T02:04:22.189Z,19.78
2022-08-26T02:05:23.873Z,19.78
2022-08-26T02:06:25.614Z,19.79
2022-08-26T02:07:27.331Z,19.8
2022-08-26T02:08:29.056Z,19.81
2022-08-26T02:09:30.865Z,19.82
2022-08-26T02:10:32.534Z,19.83
2022-08-26T02:11:34.290Z,19.85
2022-08-26T02:12:36.000Z,19.87
2022-08-26T02:13:37.733Z,19.88
2022-08-26T02:14:43.770Z,19.89
2022-08-26T02:15:41.215Z,19.92
2022-08-26T02:16:43.037Z,19.94
2022-08-26T02:17:44.657Z,19.95
2022-08-26T02:18:46.958Z,19.97
2022-08-26T02:19:48.120Z,19.98
2022-08-26T02:20:51.568Z,19.99
2022-08-26T02:21:51.904Z,20
2022-08-26T02:22:53.343Z,20
2022-08-26T02:23:56.060Z,20.01
2022-08-26T02:24:56.789Z,20.01
2022-08-26T02:25:58.675Z,20
2022-08-26T02:27:00.257Z,20
2022-08-26T02:28:02.099Z,20
2022-08-26T02:29:03.715Z,19.99
2022-08-26T02:30:05.629Z,19.98
2022-08-26T02:31:07.219Z,19.97
2022-08-26T02:32:09.058Z,19.97
2022-08-26T02:33:10.688Z,19.96
2022-08-26T02:34:12.408Z,19.95
2022-08-26T02:35:14.143Z,19.94
2022-08-26T02:36:16.043Z,19.94
2022-08-26T02:37:17.803Z,19.93
2022-08-26T02:38:19.430Z,19.93
2022-08-26T02:39:22.345Z,19.92
2022-08-26T02:40:22.890Z,19.91
2022-08-26T02:41:24.546Z,19.9
2022-08-26T02:42:26.280Z,19.89
2022-08-26T02:43:32.910Z,19.87
2022-08-26T02:44:29.731Z,19.86
2022-08-26T02:45:31.475Z,19.83
2022-08-26T02:46:33.372Z,19.83
2022-08-26T02:47:34.932Z,19.81
2022-08-26T02:48:36.668Z,19.79
2022-08-26T02:49:38.395Z,19.78
2022-08-26T02:50:40.137Z,19.77
2022-08-26T02:51:43.110Z,19.75
2022-08-26T02:52:43.624Z,19.73
2022-08-26T02:53:45.344Z,19.72
2022-08-26T02:54:47.054Z,19.69
2022-08-26T02:55:48.801Z,19.68
2022-08-26T02:56:50.537Z,19.66
2022-08-26T02:57:52.259Z,19.63
2022-08-26T02:58:53.992Z,19.59
2022-08-26T02:59:55.749Z,19.55
2022-08-26T03:00:57.534Z,19.52
2022-08-26T03:01:59.257Z,19.48
2022-08-26T03:03:00.964Z,19.43
2022-08-26T03:04:02.682Z,19.4
2022-08-26T03:05:04.414Z,19.36
2022-08-26T03:06:06.145Z,19.33
2022-08-26T03:07:07.867Z,19.31
2022-08-26T03:08:09.594Z,19.28
2022-08-26T03:09:18.437Z,19.25
2022-08-26T03:10:13.344Z,19.23
2022-08-26T03:11:14.801Z,19.21
2022-08-26T03:12:16.584Z,19.18
2022-08-26T03:13:18.270Z,19.16
2022-08-26T03:14:20.052Z,19.13
2022-08-26T03:15:21.754Z,19.11
2022-08-26T03:16:23.595Z,19.1
2022-08-26T03:17:25.197Z,19.08
2022-08-26T03:18:26.966Z,19.08
2022-08-26T03:19:28.693Z,19.06
2022-08-26T03:20:30.489Z,19.05
2022-08-26T03:21:32.142Z,19.05
2022-08-26T03:22:33.902Z,19.04
2022-08-26T03:23:35.598Z,19.03
2022-08-26T03:24:37.350Z,19.03
2022-08-26T03:25:39.061Z,19.03
2022-08-26T03:26:40.800Z,19.02
2022-08-26T03:27:42.985Z,19.01
2022-08-26T03:28:44.313Z,19
2022-08-26T03:29:49.588Z,18.99
2022-08-26T03:30:47.757Z,18.99
2022-08-26T03:31:49.489Z,18.97
2022-08-26T03:32:51.204Z,18.96
2022-08-26T03:33:56.539Z,18.96
2022-08-26T03:34:54.691Z,18.96
2022-08-26T03:35:56.391Z,18.96
2022-08-26T03:36:58.139Z,18.96
2022-08-26T03:37:59.873Z,18.96
2022-08-26T03:39:01.607Z,18.96
2022-08-26T03:40:03.429Z,18.96
2022-08-26T03:41:05.071Z,18.96
2022-08-26T03:42:06.802Z,18.97
2022-08-26T03:43:09.718Z,18.98
2022-08-26T03:44:10.263Z,18.98
2022-08-26T03:45:12.021Z,19
2022-08-26T03:46:13.846Z,19
2022-08-26T03:47:15.489Z,19.01
2022-08-26T03:48:17.202Z,19.01
2022-08-26T03:49:18.987Z,19.02
2022-08-26T03:50:22.833Z,19.03
2022-08-26T03:51:22.396Z,19.03
2022-08-26T03:52:24.138Z,19.03
2022-08-26T03:53:25.886Z,19.03
2022-08-26T03:54:27.621Z,19.03
2022-08-26T03:55:29.393Z,19.03
2022-08-26T03:56:31.059Z,19.02
2022-08-26T03:57:32.816Z,19.03
2022-08-26T03:58:34.538Z,19.02
2022-08-26T03:59:36.288Z,19.01
2022-08-26T04:00:38.003Z,19
2022-08-26T04:01:39.822Z,18.99
2022-08-26T04:02:41.561Z,18.98
2022-08-26T04:03:43.224Z,18.97
2022-08-26T04:04:44.959Z,18.95
2022-08-26T04:05:46.677Z,18.95
2022-08-26T04:06:48.413Z,18.95
2022-08-26T04:07:50.487Z,18.95
2022-08-26T04:08:51.888Z,18.97
2022-08-26T04:09:53.653Z,18.98
2022-08-26T04:10:55.344Z,18.99
2022-08-26T04:11:57.096Z,19
2022-08-26T04:12:59.275Z,19.02
2022-08-26T04:14:00.545Z,19.03
2022-08-26T04:15:02.303Z,19.05
2022-08-26T04:16:04.097Z,19.06
2022-08-26T04:17:05.767Z,19.08
2022-08-26T04:18:07.478Z,19.1
2022-08-26T04:19:09.224Z,19.11
2022-08-26T04:20:10.973Z,19.12
2022-08-26T04:21:12.677Z,19.14
2022-08-26T04:22:14.428Z,19.16
2022-08-26T04:23:16.140Z,19.16
2022-08-26T04:24:17.931Z,19.17
2022-08-26T04:25:20.491Z,19.18
2022-08-26T04:26:21.367Z,19.2
2022-08-26T04:27:23.067Z,19.2
2022-08-26T04:28:24.804Z,19.21
2022-08-26T04:29:26.555Z,19.22
2022-08-26T04:30:28.288Z,19.23
2022-08-26T04:31:31.008Z,19.24
2022-08-26T04:32:31.747Z,19.24
2022-08-26T04:33:33.476Z,19.25
2022-08-26T04:34:35.194Z,19.24
2022-08-26T04:35:36.955Z,19.23
2022-08-26T04:36:38.691Z,19.23
2022-08-26T04:37:43.055Z,19.22
2022-08-26T04:38:42.139Z,19.22
2022-08-26T04:39:43.885Z,19.22
2022-08-26T04:40:46.893Z,19.22
2022-08-26T04:41:47.343Z,19.21
2022-08-26T04:42:50.405Z,19.22
2022-08-26T04:43:50.803Z,19.21
2022-08-26T04:44:52.529Z,19.2
2022-08-26T04:45:54.290Z,19.2
2022-08-26T04:46:56.023Z,19.19
2022-08-26T04:47:57.727Z,19.19
2022-08-26T04:48:59.465Z,19.17
2022-08-26T04:50:01.922Z,19.17
2022-08-26T04:51:07.950Z,19.16
2022-08-26T04:52:04.796Z,19.16
2022-08-26T04:53:07.195Z,19.16
2022-08-26T04:54:08.128Z,19.16
2022-08-26T04:55:09.883Z,19.16
2022-08-26T04:56:11.623Z,19.16
2022-08-26T04:57:13.347Z,19.17
2022-08-26T04:58:15.076Z,19.18
2022-08-26T04:59:18.018Z,19.19
2022-08-26T05:00:18.535Z,19.2
2022-08-26T05:01:20.306Z,19.2
2022-08-26T05:02:22.004Z,19.21
2022-08-26T05:03:23.779Z,19.22
2022-08-26T05:04:25.561Z,19.23
2022-08-26T05:05:27.221Z,19.25
2022-08-26T05:06:28.992Z,19.25
2022-08-26T05:07:30.657Z,19.27
2022-08-26T05:08:32.382Z,19.28
2022-08-26T05:09:34.125Z,19.29
2022-08-26T05:10:35.874Z,19.3
2022-08-26T05:11:37.596Z,19.31
2022-08-26T05:12:39.346Z,19.3
2022-08-26T05:13:41.073Z,19.3
2022-08-26T05:14:42.828Z,19.29
2022-08-26T05:15:44.590Z,19.29
2022-08-26T05:16:47.750Z,19.28
2022-08-26T05:17:48.034Z,19.28
2022-08-26T05:18:49.740Z,19.27
2022-08-26T05:19:51.487Z,19.27
2022-08-26T05:20:53.888Z,19.27
2022-08-26T05:21:54.970Z,19.28
2022-08-26T05:22:56.659Z,19.28
2022-08-26T05:23:58.424Z,19.28
2022-08-26T05:25:00.151Z,19.3
2022-08-26T05:26:01.991Z,19.3
2022-08-26T05:27:03.855Z,19.31
2022-08-26T05:28:05.361Z,19.33
2022-08-26T05:29:07.107Z,19.35
2022-08-26T05:30:08.872Z,19.38
2022-08-26T05:31:10.579Z,19.4
2022-08-26T05:32:12.275Z,19.42
2022-08-26T05:33:14.020Z,19.45
2022-08-26T05:34:15.727Z,19.46
2022-08-26T05:35:17.472Z,19.5
2022-08-26T05:36:19.199Z,19.52
2022-08-26T05:37:20.956Z,19.55
2022-08-26T05:38:22.660Z,19.56
2022-08-26T05:39:24.395Z,19.58
2022-08-26T05:40:26.210Z,19.61
2022-08-26T05:41:27.852Z,19.63
2022-08-26T05:42:29.613Z,19.65
2022-08-26T05:43:31.344Z,19.66
2022-08-26T05:44:50.111Z,19.68
2022-08-26T05:45:34.808Z,19.69
2022-08-26T05:46:36.695Z,19.71
2022-08-26T05:47:38.286Z,19.72
2022-08-26T05:48:40.018Z,19.73
2022-08-26T05:49:49.468Z,19.75
2022-08-26T05:50:43.469Z,19.76
2022-08-26T05:51:45.266Z,19.78
2022-08-26T05:52:46.939Z,19.8
2022-08-26T05:53:54.635Z,19.81
2022-08-26T05:54:50.393Z,19.83
2022-08-26T05:55:52.135Z,19.84
2022-08-26T05:56:53.863Z,19.86
2022-08-26T05:57:55.622Z,19.87
2022-08-26T05:58:58.339Z,19.88
2022-08-26T05:59:59.053Z,19.92
2022-08-26T06:01:00.799Z,19.93
2022-08-26T06:02:02.543Z,19.96
2022-08-26T06:03:04.375Z,19.98
2022-08-26T06:04:05.992Z,20.01
2022-08-26T06:05:07.754Z,20.03
2022-08-26T06:06:09.683Z,20.06
2022-08-26T06:07:11.480Z,20.09
2022-08-26T06:08:12.948Z,20.11
2022-08-26T06:09:14.666Z,20.14
2022-08-26T06:10:31.458Z,20.16
2022-08-26T06:11:18.692Z,20.19
2022-08-26T06:12:19.869Z,20.2
2022-08-26T06:13:21.625Z,20.22
2022-08-26T06:14:23.553Z,20.24
2022-08-26T06:15:25.087Z,20.26
2022-08-26T06:16:26.913Z,20.29
2022-08-26T06:17:28.529Z,20.31
2022-08-26T06:18:30.284Z,20.33
2022-08-26T06:19:32.795Z,20.35
2022-08-26T06:20:33.747Z,20.36
2022-08-26T06:21:35.488Z,20.39
2022-08-26T06:22:37.208Z,20.41
2022-08-26T06:23:39.162Z,20.45
2022-08-26T06:24:40.702Z,20.48
2022-08-26T06:25:11.542Z,20.49
2022-08-26T06:25:42.411Z,20.51
2022-08-26T06:26:44.140Z,20.54
2022-08-26T06:27:45.887Z,20.58
2022-08-26T06:28:06.453Z,20.59
2022-08-26T06:29:08.218Z,20.63
2022-08-26T06:30:09.920Z,20.68
2022-08-26T06:31:11.784Z,20.71
2022-08-26T06:32:13.402Z,20.76
2022-08-26T06:33:15.113Z,20.81
2022-08-26T06:34:16.868Z,20.87
2022-08-26T06:35:18.604Z,20.99
2022-08-26T06:36:20.319Z,21.14
2022-08-26T06:37:23.063Z,21.29
2022-08-26T06:38:23.778Z,21.41
2022-08-26T06:39:25.549Z,21.52
2022-08-26T06:40:27.307Z,21.65
2022-08-26T06:41:28.979Z,21.76
2022-08-26T06:42:30.787Z,21.85
2022-08-26T06:43:32.439Z,21.96
2022-08-26T06:44:34.179Z,22.05
2022-08-26T06:45:35.920Z,22.11
2022-08-26T06:46:37.755Z,22.19
2022-08-26T06:47:39.385Z,22.27
2022-08-26T06:48:41.137Z,22.34
2022-08-26T06:49:44.210Z,22.41
2022-08-26T06:50:44.610Z,22.48
2022-08-26T06:51:46.323Z,22.56
2022-08-26T06:52:48.052Z,22.62
2022-08-26T06:53:49.799Z,22.7
2022-08-26T06:54:51.521Z,22.77
2022-08-26T06:55:53.268Z,22.83
2022-08-26T06:56:54.976Z,22.9
2022-08-26T06:57:56.711Z,22.97
2022-08-26T06:58:58.446Z,23.03
2022-08-26T07:00:00.189Z,23.09
2022-08-26T07:01:11.701Z,23.15
2022-08-26T07:02:03.879Z,23.23
2022-08-26T07:03:05.452Z,23.29
2022-08-26T07:04:10.485Z,23.34
2022-08-26T07:05:08.840Z,23.41
2022-08-26T07:06:10.613Z,23.46
2022-08-26T07:07:12.310Z,23.53
2022-08-26T07:08:14.101Z,23.61
2022-08-26T07:09:15.800Z,23.65
2022-08-26T07:10:17.542Z,23.72
2022-08-26T07:11:19.242Z,23.78
2022-08-26T07:12:21.115Z,23.85
2022-08-26T07:13:30.819Z,23.94
2022-08-26T07:14:24.448Z,23.99
2022-08-26T07:15:31.003Z,24.1
2022-08-26T07:16:27.926Z,24.24
2022-08-26T07:17:29.672Z,24.35
2022-08-26T07:18:31.379Z,24.43
2022-08-26T07:19:33.137Z,24.5
2022-08-26T07:20:34.877Z,24.55
2022-08-26T07:21:36.599Z,24.61
2022-08-26T07:22:38.346Z,24.67
2022-08-26T07:23:40.301Z,24.74
2022-08-26T07:24:41.964Z,24.81
2022-08-26T07:25:43.568Z,24.86
2022-08-26T07:26:45.254Z,24.89
2022-08-26T07:27:47.056Z,24.93
2022-08-26T07:28:48.736Z,24.97
2022-08-26T07:29:50.465Z,24.99
2022-08-26T07:30:52.492Z,25.02
2022-08-26T07:31:53.935Z,25.04
2022-08-26T07:32:55.663Z,25.08
2022-08-26T07:33:11.207Z,25.09
2022-08-26T07:34:12.857Z,25.13
2022-08-26T07:35:14.552Z,25.16
2022-08-26T07:36:16.301Z,25.24
2022-08-26T07:37:18.046Z,25.31
2022-08-26T07:38:19.782Z,25.42
2022-08-26T07:39:21.540Z,25.55
2022-08-26T07:40:23.302Z,25.65
2022-08-26T07:41:25.005Z,25.65
2022-08-26T07:42:27.712Z,25.66
2022-08-26T07:43:28.414Z,25.67
2022-08-26T07:44:30.283Z,25.65
2022-08-26T07:45:31.895Z,25.69
2022-08-26T07:46:33.607Z,25.71
2022-08-26T07:47:35.348Z,25.7
2022-08-26T07:48:37.081Z,25.72
2022-08-26T07:49:38.897Z,25.74
2022-08-26T07:50:48.852Z,25.7
2022-08-26T07:51:42.297Z,25.74
2022-08-26T07:52:44.031Z,25.76
2022-08-26T07:53:47.952Z,25.78
2022-08-26T07:54:47.482Z,25.79
2022-08-26T07:55:49.465Z,25.81
2022-08-26T07:56:50.998Z,25.85
2022-08-26T07:57:52.672Z,25.88
2022-08-26T07:58:54.436Z,25.9
2022-08-26T07:59:56.157Z,25.91
2022-08-26T08:00:57.912Z,25.97
2022-08-26T08:01:59.673Z,26.07
2022-08-26T08:03:01.344Z,26.16
2022-08-26T08:04:03.077Z,26.29
2022-08-26T08:05:04.892Z,26.4
2022-08-26T08:06:06.571Z,26.53
2022-08-26T08:07:11.430Z,26.64
2022-08-26T08:08:26.775Z,26.74
2022-08-26T08:09:11.749Z,26.82
2022-08-26T08:10:13.481Z,26.88
2022-08-26T08:11:15.237Z,26.93
2022-08-26T08:12:16.953Z,26.96
2022-08-26T08:13:18.729Z,27
2022-08-26T08:14:22.322Z,27
2022-08-26T08:15:22.169Z,27.03
2022-08-26T08:16:23.906Z,27.04
2022-08-26T08:17:25.616Z,27.08
2022-08-26T08:18:27.346Z,27.08
2022-08-26T08:19:36.852Z,27.11
2022-08-26T08:20:30.842Z,27.09
2022-08-26T08:21:32.536Z,27.1
2022-08-26T08:22:34.285Z,27.1
2022-08-26T08:23:36.007Z,27.08
2022-08-26T08:24:37.760Z,27.07
2022-08-26T08:25:39.488Z,27.09
2022-08-26T08:26:41.227Z,27.12
2022-08-26T08:27:42.948Z,27.15
2022-08-26T08:28:44.699Z,27.18
2022-08-26T08:29:46.474Z,27.18
2022-08-26T08:30:48.224Z,27.22
2022-08-26T08:31:56.704Z,27.25
2022-08-26T08:32:51.705Z,27.29
2022-08-26T08:33:53.335Z,27.31
2022-08-26T08:34:55.094Z,27.28
2022-08-26T08:35:56.829Z,27.31
2022-08-26T08:36:58.562Z,27.34
2022-08-26T08:38:00.321Z,27.36
2022-08-26T08:39:02.004Z,27.38
2022-08-26T08:40:03.759Z,27.41
2022-08-26T08:41:05.686Z,27.44
2022-08-26T08:42:07.199Z,27.48
2022-08-26T08:43:09.142Z,27.52
2022-08-26T08:44:10.675Z,27.56
2022-08-26T08:45:12.403Z,27.61
2022-08-26T08:46:14.269Z,27.66
2022-08-26T08:47:15.871Z,27.75
2022-08-26T08:48:17.611Z,27.83
2022-08-26T08:49:19.339Z,27.93
2022-08-26T08:50:21.070Z,28.03
2022-08-26T08:51:22.820Z,28.11
2022-08-26T08:52:24.549Z,28.18
2022-08-26T08:53:26.266Z,28.17
2022-08-26T08:54:28.000Z,28.22
2022-08-26T08:55:29.759Z,28.25
2022-08-26T08:56:31.478Z,28.27
2022-08-26T08:57:33.228Z,28.28
2022-08-26T08:58:34.965Z,28.3
2022-08-26T08:59:38.284Z,28.32
2022-08-26T09:00:39.891Z,28.36
2022-08-26T09:01:40.252Z,28.4
2022-08-26T09:02:41.975Z,28.44
2022-08-26T09:03:43.642Z,28.45
2022-08-26T09:04:45.348Z,28.48
2022-08-26T09:05:48.949Z,28.49
2022-08-26T09:06:48.903Z,28.5
2022-08-26T09:07:50.548Z,28.52
2022-08-26T09:08:52.298Z,28.55
2022-08-26T09:09:54.009Z,28.58
2022-08-26T09:10:55.768Z,28.57
2022-08-26T09:11:57.504Z,28.59
2022-08-26T09:12:59.220Z,28.62
2022-08-26T09:14:00.973Z,28.63
2022-08-26T09:15:02.683Z,28.65
2022-08-26T09:16:04.445Z,28.66
2022-08-26T09:17:06.204Z,28.69
2022-08-26T09:18:09.140Z,28.7
2022-08-26T09:19:09.600Z,28.62
2022-08-26T09:20:11.337Z,28.6
2022-08-26T09:21:13.113Z,28.59
2022-08-26T09:22:14.831Z,28.58
2022-08-26T09:23:16.556Z,28.58
2022-08-26T09:24:18.287Z,28.53
2022-08-26T09:25:20.001Z,28.53
2022-08-26T09:26:24.726Z,28.55
2022-08-26T09:27:23.465Z,28.57
2022-08-26T09:28:25.218Z,28.58
2022-08-26T09:29:26.984Z,28.6
2022-08-26T09:30:28.795Z,28.61
2022-08-26T09:31:30.530Z,28.65
2022-08-26T09:32:32.157Z,28.67
2022-08-26T09:33:33.878Z,28.69
2022-08-26T09:34:35.628Z,28.69
2022-08-26T09:35:37.361Z,28.73
2022-08-26T09:36:41.260Z,28.74
2022-08-26T09:37:40.902Z,28.76
2022-08-26T09:38:42.571Z,28.73
2022-08-26T09:39:44.278Z,28.73
2022-08-26T09:40:46.029Z,28.76
2022-08-26T09:41:47.760Z,28.76
2022-08-26T09:42:49.546Z,28.75
2022-08-26T09:43:51.207Z,28.73
2022-08-26T09:44:52.965Z,28.72
2022-08-26T09:45:58.402Z,28.75
2022-08-26T09:46:56.421Z,28.75
2022-08-26T09:48:01.382Z,28.76
2022-08-26T09:48:59.893Z,28.75
2022-08-26T09:50:01.615Z,28.79
2022-08-26T09:51:13.348Z,28.75
2022-08-26T09:52:05.076Z,28.77
2022-08-26T09:53:09.697Z,28.79
2022-08-26T09:54:08.558Z,28.82
2022-08-26T09:55:10.272Z,28.85
2022-08-26T09:56:12.021Z,28.88
2022-08-26T09:57:13.738Z,28.88
2022-08-26T09:58:15.476Z,28.9
2022-08-26T09:59:18.966Z,28.95
2022-08-26T10:00:18.993Z,28.95
2022-08-26T10:01:20.748Z,28.98
2022-08-26T10:02:22.413Z,28.98
2022-08-26T10:03:24.141Z,29.01
2022-08-26T10:04:26.703Z,29.05
2022-08-26T10:05:27.605Z,29.04
2022-08-26T10:06:29.367Z,29.07
2022-08-26T10:07:31.073Z,29.1
2022-08-26T10:08:32.808Z,29.14
2022-08-26T10:09:34.535Z,29.19
2022-08-26T10:10:36.294Z,29.23
2022-08-26T10:11:38.005Z,29.27
2022-08-26T10:12:39.753Z,29.33
2022-08-26T10:13:41.463Z,29.42
2022-08-26T10:15:50.056Z,29.51
2022-08-26T10:16:46.775Z,29.55
2022-08-26T10:17:48.410Z,29.6
2022-08-26T10:18:50.147Z,29.68
2022-08-26T10:19:57.206Z,29.74
2022-08-26T10:20:53.632Z,29.8
2022-08-26T10:21:55.338Z,29.87
2022-08-26T10:22:57.236Z,29.95
2022-08-26T10:23:58.811Z,30.04
2022-08-26T10:25:00.549Z,30.11
2022-08-26T10:26:07.294Z,30.19
2022-08-26T10:27:04.005Z,30.22
2022-08-26T10:28:05.937Z,30.26
2022-08-26T10:28:46.960Z,30.26
2022-08-26T10:29:48.634Z,30.27
2022-08-26T10:30:50.422Z,30.33
2022-08-26T10:31:52.171Z,30.31
2022-08-26T10:32:53.853Z,30.36
2022-08-26T10:33:58.679Z,30.39
2022-08-26T10:34:57.294Z,30.42
2022-08-26T10:35:59.057Z,30.42
2022-08-26T10:37:13.676Z,30.45
2022-08-26T10:38:02.568Z,30.5
2022-08-26T10:39:04.225Z,30.51
2022-08-26T10:40:06.070Z,30.52
2022-08-26T10:41:10.333Z,30.57
2022-08-26T10:42:09.465Z,30.52
2022-08-26T10:43:11.643Z,30.56
2022-08-26T10:44:12.898Z,30.61
2022-08-26T10:45:14.895Z,30.58
2022-08-26T10:46:16.483Z,30.64
2022-08-26T10:47:18.101Z,30.69
2022-08-26T10:48:19.832Z,30.73
2022-08-26T10:49:21.571Z,30.77
2022-08-26T10:50:23.291Z,30.79
2022-08-26T10:51:25.047Z,30.83
2022-08-26T10:52:29.357Z,30.79
2022-08-26T10:53:28.495Z,30.78
2022-08-26T10:54:30.229Z,30.75
2022-08-26T10:55:34.960Z,30.8
2022-08-26T10:56:33.741Z,30.85
2022-08-26T10:57:35.447Z,30.87
2022-08-26T10:58:37.165Z,30.86
2022-08-26T10:59:38.899Z,30.84
2022-08-26T11:00:40.706Z,30.83
2022-08-26T11:01:42.463Z,30.85
2022-08-26T11:02:47.078Z,30.83
2022-08-26T11:03:45.935Z,30.79
2022-08-26T11:04:48.422Z,30.71
2022-08-26T11:05:49.299Z,30.7
2022-08-26T11:06:51.238Z,30.73
2022-08-26T11:07:52.831Z,30.77
2022-08-26T11:08:54.501Z,30.77
2022-08-26T11:09:56.227Z,30.82
2022-08-26T11:10:59.127Z,30.88
2022-08-26T11:12:02.848Z,30.9
2022-08-26T11:13:01.612Z,30.96
2022-08-26T11:14:03.183Z,31.03
2022-08-26T11:15:05.141Z,31.08
2022-08-26T11:16:06.682Z,31.12
2022-08-26T11:17:08.413Z,31.17
2022-08-26T11:18:10.357Z,31.21
2022-08-26T11:19:11.831Z,31.24
2022-08-26T11:20:14.604Z,31.3
2022-08-26T11:21:15.300Z,31.34
2022-08-26T11:22:17.060Z,31.32
2022-08-26T11:23:18.773Z,31.3
2022-08-26T11:24:20.508Z,31.28
2022-08-26T11:25:24.436Z,31.25
2022-08-26T11:26:36.050Z,31.21
2022-08-26T11:27:25.772Z,31.2
2022-08-26T11:28:27.438Z,31.19
2022-08-26T11:29:29.177Z,31.18
2022-08-26T11:30:30.912Z,31.16
2022-08-26T11:31:32.745Z,31.15
2022-08-26T11:32:34.403Z,31.1
2022-08-26T11:33:36.100Z,31.08
2022-08-26T11:34:37.838Z,31.05
2022-08-26T11:35:39.579Z,31
2022-08-26T11:36:41.306Z,30.94
2022-08-26T11:37:43.047Z,30.9
2022-08-26T11:38:44.775Z,30.83
2022-08-26T11:39:49.389Z,30.76
2022-08-26T11:40:48.231Z,30.69
2022-08-26T11:41:52.694Z,30.55
2022-08-26T11:42:51.729Z,30.47
2022-08-26T11:43:53.665Z,30.41
2022-08-26T11:44:56.218Z,30.28
2022-08-26T11:45:56.989Z,30.21
2022-08-26T11:46:58.752Z,30.16
2022-08-26T11:48:00.398Z,30.12
2022-08-26T11:49:02.102Z,30.05
2022-08-26T11:50:03.832Z,29.99
2022-08-26T11:51:05.580Z,29.93
2022-08-26T11:52:07.303Z,29.88
2022-08-26T11:53:09.049Z,29.83
2022-08-26T11:54:10.776Z,29.81
2022-08-26T11:55:12.511Z,29.78
2022-08-26T11:56:14.231Z,29.74
2022-08-26T11:57:15.979Z,29.72
2022-08-26T11:58:17.729Z,29.74
2022-08-26T11:59:19.462Z,29.77
2022-08-26T12:00:21.213Z,29.8
2022-08-26T12:01:22.922Z,29.83
2022-08-26T12:02:24.655Z,29.88
2022-08-26T12:03:26.468Z,29.94
2022-08-26T12:04:28.195Z,30
2022-08-26T12:05:31.095Z,30.07
2022-08-26T12:06:31.591Z,30.15
2022-08-26T12:07:33.325Z,30.22
2022-08-26T12:08:35.050Z,30.3
2022-08-26T12:09:36.785Z,30.35
2022-08-26T12:10:38.514Z,30.4
2022-08-26T12:11:40.242Z,30.42
2022-08-26T12:12:41.979Z,30.42
2022-08-26T12:13:43.723Z,30.41
2022-08-26T12:14:45.448Z,30.4
2022-08-26T12:15:47.172Z,30.37
2022-08-26T12:16:48.963Z,30.32
2022-08-26T12:17:54.303Z,30.28
2022-08-26T12:18:52.390Z,30.24
2022-08-26T12:19:54.119Z,30.18
2022-08-26T12:20:55.844Z,30.08
2022-08-26T12:21:57.591Z,29.98
2022-08-26T12:22:59.298Z,29.89
2022-08-26T12:24:01.061Z,29.81
2022-08-26T12:25:02.786Z,29.77
2022-08-26T12:26:04.521Z,29.7
2022-08-26T12:27:06.245Z,29.61
2022-08-26T12:28:08.127Z,29.52
2022-08-26T12:29:19.984Z,29.45
2022-08-26T12:30:12.484Z,29.33
2022-08-26T12:31:13.234Z,29.21
2022-08-26T12:32:14.926Z,29.12
2022-08-26T12:33:22.950Z,29.02
2022-08-26T12:34:18.675Z,28.93
2022-08-26T12:35:20.099Z,28.83
2022-08-26T12:36:21.875Z,28.76
2022-08-26T12:37:23.575Z,28.68
2022-08-26T12:38:25.325Z,28.57
2022-08-26T12:39:27.039Z,28.49
2022-08-26T12:40:28.976Z,28.41
2022-08-26T12:41:30.595Z,28.23
2022-08-26T12:42:32.245Z,28.12
2022-08-26T12:43:34.048Z,27.96
2022-08-26T12:44:35.727Z,27.81
2022-08-26T12:45:37.498Z,27.62
2022-08-26T12:46:39.189Z,27.46
2022-08-26T12:47:43.564Z,27.23
2022-08-26T12:48:42.660Z,27.05
2022-08-26T12:49:44.384Z,26.9
2022-08-26T12:50:46.112Z,26.71
2022-08-26T12:51:47.843Z,26.6
2022-08-26T12:52:49.573Z,26.46
2022-08-26T12:53:51.302Z,26.31
2022-08-26T12:54:56.694Z,26.17
2022-08-26T12:55:54.774Z,26.03
2022-08-26T12:56:56.498Z,25.88
2022-08-26T12:57:58.235Z,25.75
2022-08-26T12:58:59.998Z,25.64
2022-08-26T13:00:01.729Z,25.52
2022-08-26T13:01:04.647Z,25.38
2022-08-26T13:02:05.263Z,25.27
2022-08-26T13:03:07.163Z,25.16
2022-08-26T13:04:08.638Z,25.06
2022-08-26T13:05:10.396Z,24.96
2022-08-26T13:06:15.512Z,24.79
2022-08-26T13:07:13.852Z,24.69
2022-08-26T13:08:15.580Z,24.48
2022-08-26T13:09:17.314Z,24.35
2022-08-26T13:10:19.047Z,24.16
2022-08-26T13:11:20.781Z,24.01
2022-08-26T13:12:22.538Z,23.82
2022-08-26T13:13:24.247Z,23.63
2022-08-26T13:14:25.977Z,23.4
2022-08-26T13:15:27.714Z,23.19
2022-08-26T13:16:29.503Z,23.01
2022-08-26T13:17:31.181Z,22.81